Tri Cities Regional Tn Va Airport
KTRI : now visible

Airfield :











YOU CAN JOIN US ON...

 
LOGIN :

Register | Disclaimer

   EN    FR    IT 

 









Legend :    VFR   Marginal VFR   IFR   Intensive IFR   Very Intensive IFR
Visi :
Ceiling :
>= 8 km
>= 3000ft
5 to 8 km
1000 to 3000 ft
1500m to 5 km
500 to 1000 ft
800 to 1500m
200 to 500 ft
< 800m
< 200 ft
Symbols :   Thunderstorms  Fog  Heavy snow  Heavy precipitations  Wind > 20 kt







- Airport Elevation : 1519 ft
- IATA code : TRI


KTRI - Tri Cities Regional Tn Va

CURRENT METAR :
  • 201953Z 14004KT 10SM FEW060 27/16 A3025 RMK AO2 SLP222 T02670156

EXPIRED METARs :
  • 201853Z 00000KT 10SM FEW048 BKN060 26/15 A3028 RMK AO2 SLP230 T02560150
  • 201753Z 09004KT 10SM BKN046 BKN060 23/14 A3030 RMK AO2 SLP241 T02330144 10233 20128 58011

TAF KTRI
Valid from the 20 at 18:00 until the 21 at 18:00 UTC


201720Z 2018/2118 VRB03KT P6SM BKN045 BKN080
FM210200 00000KT P6SM FEW060
TEMPO 2109/2112 4SM BR
FM211200 VRB03KT P6SM SCT045
No reported NOTAMs for that airfield.



MET'MAP, your aeronautical weather chart ! - Copyright ORBIFLY December 2007 - Disclaimer

ORBIFLY MET'MAP TEAM :

Programming & Development : Alexandra Zaïnal
Concept & Development : Baudouin d'Aumeries
Co-Development & Prog : Marc-Olivier Méhu
Technical & hardware support : Manuel Goepfert

Contact : metmap@orbifly.com




SOURCES & CREDITS :

   NOAA       Earth
Advisory